Le Grand, Iowa
Current Conditions -  °F | °C
As of 3:53 AM on Friday 31 Oct 2014 (Local Time) from KMIW Reporting Station
Clear Clear  
Wind Chill: 19°   Ceiling: Unl
Heat Index: 32°   Visibility: 10mi
Dew Point: 15°   Wind: 25mph
Humidity: 50%   Direction: 350°N
Pressure: 30.35"   Gusts: 32mph
Location:  42.01°N, 92.78°W
Report Text: KMIW 310853Z AUTO 35022G28KT 10SM CLR 00/M09 A3035 RMK AO2 PK WND 35033/0833 SLP281 T00001094 53029
Loading
Personal Weather Stations






























Interactive Weather Map
Tropical Storm Tracking
New forecast layout! Learn more

10-Day Weather Forecast

Advertisements
Track Severe Weather on mobile